createdAt,value
2022-09-11T00:02:02.594Z,15.10
2022-09-11T00:05:01.262Z,15.10
2022-09-11T00:07:36.919Z,15.10
2022-09-11T00:10:17.976Z,15.20
2022-09-11T00:12:53.569Z,15.20
2022-09-11T00:15:29.043Z,15.20
2022-09-11T00:18:06.141Z,15.10
2022-09-11T00:20:51.237Z,15.30
2022-09-11T00:23:31.113Z,15.20
2022-09-11T00:26:07.845Z,15.10
2022-09-11T00:28:42.556Z,15.10
2022-09-11T00:31:21.688Z,15.10
2022-09-11T00:33:57.204Z,15.20
2022-09-11T00:36:35.232Z,15.10
2022-09-11T00:39:16.890Z,15.10
2022-09-11T00:41:52.714Z,15.10
2022-09-11T00:45:04.003Z,15.20
2022-09-11T00:47:41.439Z,15.20
2022-09-11T00:50:21.921Z,15.10
2022-09-11T00:53:28.436Z,15.10
2022-09-11T00:56:09.991Z,15.20
2022-09-11T00:58:55.663Z,15.20
2022-09-11T01:01:32.834Z,15.00
2022-09-11T01:04:17.787Z,15.10
2022-09-11T01:06:55.940Z,15.10
2022-09-11T01:09:37.636Z,15.10
2022-09-11T01:12:21.306Z,15.10
2022-09-11T01:15:02.793Z,15.10
2022-09-11T01:17:52.632Z,15.00
2022-09-11T01:20:59.874Z,15.20
2022-09-11T01:24:03.408Z,15.10
2022-09-11T01:26:55.712Z,15.00
2022-09-11T01:29:40.789Z,15.00
2022-09-11T01:32:25.497Z,15.20
2022-09-11T01:35:06.599Z,15.10
2022-09-11T01:37:48.250Z,15.20
2022-09-11T01:40:28.933Z,15.10
2022-09-11T01:43:09.974Z,15.10
2022-09-11T01:45:49.562Z,15.10
2022-09-11T01:48:28.749Z,15.10
2022-09-11T01:51:09.887Z,15.10
2022-09-11T01:53:50.325Z,15.20
2022-09-11T01:56:31.023Z,15.20
2022-09-11T01:59:08.386Z,15.10
2022-09-11T02:01:51.438Z,15.10
2022-09-11T02:04:29.876Z,15.10
2022-09-11T02:07:10.063Z,15.10
2022-09-11T02:09:53.832Z,15.10
2022-09-11T02:12:42.180Z,15.00
2022-09-11T02:15:19.245Z,15.00
2022-09-11T02:18:02.188Z,15.00
2022-09-11T02:20:37.658Z,15.00
2022-09-11T02:23:12.269Z,15.00
2022-09-11T02:25:48.301Z,15.10
2022-09-11T02:28:25.729Z,15.00
2022-09-11T02:31:06.498Z,15.00
2022-09-11T02:34:00.860Z,15.00
2022-09-11T02:37:07.982Z,15.10
2022-09-11T02:40:29.744Z,15.10
2022-09-11T02:43:40.249Z,15.00
2022-09-11T02:46:44.471Z,15.00
2022-09-11T02:49:34.347Z,14.90
2022-09-11T02:52:21.233Z,15.00
2022-09-11T02:55:07.065Z,15.00
2022-09-11T02:57:51.988Z,15.00
2022-09-11T03:00:26.874Z,15.00
2022-09-11T03:03:01.907Z,15.00
2022-09-11T03:05:40.400Z,15.00
2022-09-11T03:08:17.471Z,15.00
2022-09-11T03:10:55.076Z,15.00
2022-09-11T03:13:36.777Z,15.00
2022-09-11T03:16:24.883Z,15.00
2022-09-11T03:18:59.822Z,15.00
2022-09-11T03:21:37.720Z,15.00
2022-09-11T03:24:13.554Z,15.00
2022-09-11T03:26:48.904Z,15.00
2022-09-11T03:29:29.519Z,15.00
2022-09-11T03:32:05.128Z,15.00
2022-09-11T03:34:46.384Z,15.00
2022-09-11T03:37:27.190Z,15.00
2022-09-11T03:40:09.918Z,14.90
2022-09-11T03:42:46.218Z,14.90
2022-09-11T03:45:21.779Z,15.00
2022-09-11T03:47:57.176Z,15.00
2022-09-11T03:50:32.387Z,14.90
2022-09-11T03:53:11.833Z,14.90
2022-09-11T03:55:47.652Z,14.90
2022-09-11T03:58:23.488Z,14.90
2022-09-11T04:00:59.881Z,14.90
2022-09-11T04:03:38.051Z,14.90
2022-09-11T04:06:15.443Z,14.80
2022-09-11T04:08:51.798Z,14.90
2022-09-11T04:11:32.365Z,14.90
2022-09-11T04:14:10.839Z,15.00
2022-09-11T04:16:48.976Z,15.00
2022-09-11T04:19:29.793Z,14.90
2022-09-11T04:22:06.849Z,14.90
2022-09-11T04:24:58.313Z,14.90
2022-09-11T04:27:35.219Z,14.80
2022-09-11T04:30:11.843Z,14.90
2022-09-11T04:32:46.848Z,14.80
2022-09-11T04:35:22.071Z,14.80
2022-09-11T04:38:02.899Z,14.90
2022-09-11T04:40:46.887Z,14.80
2022-09-11T04:43:22.274Z,14.70
2022-09-11T04:46:08.628Z,14.80
2022-09-11T04:48:47.070Z,14.90
2022-09-11T04:51:25.271Z,14.80
2022-09-11T04:54:06.897Z,14.80
2022-09-11T04:56:49.031Z,14.80
2022-09-11T04:59:29.562Z,14.80
2022-09-11T05:02:05.700Z,14.80
2022-09-11T05:04:40.262Z,14.80
2022-09-11T05:07:15.673Z,14.80
2022-09-11T05:09:51.179Z,14.80
2022-09-11T05:15:18.454Z,14.80
2022-09-11T05:17:55.273Z,14.80
2022-09-11T05:20:31.400Z,14.80
2022-09-11T05:23:13.186Z,14.90
2022-09-11T05:25:59.387Z,14.90
2022-09-11T05:28:36.872Z,14.90
2022-09-11T05:31:15.417Z,14.90
2022-09-11T05:36:41.634Z,14.90
2022-09-11T05:39:22.005Z,15.00
2022-09-11T05:41:59.843Z,15.00
2022-09-11T05:44:37.615Z,15.00
2022-09-11T05:47:13.468Z,14.90
2022-09-11T05:49:48.372Z,15.00
2022-09-11T05:52:24.452Z,15.00
2022-09-11T05:54:59.060Z,15.10
2022-09-11T05:57:34.929Z,15.10
2022-09-11T06:00:19.592Z,15.10
2022-09-11T06:02:56.506Z,15.20
2022-09-11T06:05:32.959Z,15.20
2022-09-11T06:08:11.304Z,15.20
2022-09-11T06:10:52.934Z,15.20
2022-09-11T06:13:34.483Z,15.20
2022-09-11T06:16:17.776Z,15.30
2022-09-11T06:18:55.040Z,15.30
2022-09-11T06:21:30.525Z,15.30
2022-09-11T06:24:07.755Z,15.40
2022-09-11T06:26:46.562Z,15.40
2022-09-11T06:29:22.408Z,15.40
2022-09-11T06:32:09.760Z,15.50
2022-09-11T06:34:48.146Z,15.50
2022-09-11T06:37:23.963Z,15.50
2022-09-11T06:39:59.493Z,15.60
2022-09-11T06:42:41.636Z,15.60
2022-09-11T06:48:20.916Z,15.70
2022-09-11T06:50:56.307Z,15.70
2022-09-11T06:53:35.581Z,15.70
2022-09-11T06:56:15.364Z,15.70
2022-09-11T06:58:51.816Z,15.60
2022-09-11T07:01:29.597Z,15.60
2022-09-11T07:04:23.528Z,15.70
2022-09-11T07:06:59.196Z,15.60
2022-09-11T07:09:38.747Z,15.60
2022-09-11T07:12:14.120Z,15.70
2022-09-11T07:14:48.994Z,15.80
2022-09-11T07:17:24.982Z,15.90
2022-09-11T07:20:18.226Z,15.80
2022-09-11T07:22:58.824Z,15.90
2022-09-11T07:25:47.423Z,16.00
2022-09-11T07:28:27.978Z,16.00
2022-09-11T07:31:14.505Z,16.10
2022-09-11T07:33:54.894Z,16.20
2022-09-11T07:36:52.192Z,16.30
2022-09-11T07:39:28.370Z,16.50
2022-09-11T07:42:12.972Z,16.60
2022-09-11T07:44:51.956Z,16.80
2022-09-11T07:47:27.727Z,16.90
2022-09-11T07:50:04.612Z,17.00
2022-09-11T07:52:41.068Z,17.20
2022-09-11T07:55:19.599Z,17.20
2022-09-11T07:57:56.863Z,17.30
2022-09-11T08:00:36.497Z,17.40
2022-09-11T08:03:11.864Z,17.50
2022-09-11T08:05:51.640Z,17.50
2022-09-11T08:08:29.492Z,17.40
2022-09-11T08:11:12.228Z,17.40
2022-09-11T08:13:53.589Z,17.40
2022-09-11T08:16:30.709Z,17.40
2022-09-11T08:19:06.360Z,17.30
2022-09-11T08:21:41.601Z,17.30
2022-09-11T08:24:22.365Z,17.50
2022-09-11T08:27:00.499Z,17.50
2022-09-11T08:29:47.629Z,17.40
2022-09-11T08:32:28.575Z,17.50
2022-09-11T08:35:17.168Z,17.50
2022-09-11T08:37:54.819Z,17.50
2022-09-11T08:40:40.473Z,17.50
2022-09-11T08:43:24.903Z,17.50
2022-09-11T08:46:06.436Z,17.50
2022-09-11T08:48:52.261Z,17.60
2022-09-11T08:51:37.272Z,17.60
2022-09-11T08:54:36.698Z,17.50
2022-09-11T08:57:21.325Z,17.60
2022-09-11T09:00:27.175Z,17.70
2022-09-11T09:03:32.762Z,17.60
2022-09-11T09:06:44.573Z,17.80
2022-09-11T09:09:34.788Z,18.20
2022-09-11T09:12:21.080Z,18.60
2022-09-11T09:15:29.550Z,18.70
2022-09-11T09:18:11.902Z,18.90
2022-09-11T09:20:54.778Z,18.50
2022-09-11T09:23:36.918Z,18.40
2022-09-11T09:26:19.243Z,18.50
2022-09-11T09:29:02.117Z,18.70
2022-09-11T09:31:41.592Z,18.80
2022-09-11T09:34:27.107Z,18.80
2022-09-11T09:37:12.016Z,18.70
2022-09-11T09:40:05.323Z,18.70
2022-09-11T09:43:12.419Z,18.70
2022-09-11T09:46:18.245Z,18.60
2022-09-11T09:48:53.613Z,18.70
2022-09-11T09:51:29.435Z,18.60
2022-09-11T09:54:04.187Z,18.40
2022-09-11T09:56:43.700Z,18.40
2022-09-11T09:59:38.833Z,18.40
2022-09-11T10:02:15.614Z,18.50
2022-09-11T10:05:27.940Z,18.40
2022-09-11T10:08:08.490Z,18.30
2022-09-11T10:11:04.886Z,18.30
2022-09-11T10:13:42.662Z,18.10
2022-09-11T10:16:24.008Z,18.40
2022-09-11T10:19:00.937Z,18.80
2022-09-11T10:21:54.686Z,19.30
2022-09-11T10:24:38.351Z,20.00
2022-09-11T10:27:16.768Z,20.80
2022-09-11T10:30:08.498Z,21.20
2022-09-11T10:32:45.479Z,20.70
2022-09-11T10:35:28.399Z,20.50
2022-09-11T10:38:18.199Z,20.10
2022-09-11T10:41:12.120Z,19.60
2022-09-11T10:43:59.441Z,19.20
2022-09-11T10:46:41.097Z,18.90
2022-09-11T10:49:25.148Z,18.70
2022-09-11T10:52:05.500Z,18.50
2022-09-11T10:54:53.634Z,18.50
2022-09-11T10:57:33.714Z,18.40
2022-09-11T11:00:21.125Z,18.40
2022-09-11T11:03:01.305Z,18.60
2022-09-11T11:05:49.050Z,18.90
2022-09-11T11:09:00.857Z,19.10
2022-09-11T11:11:56.110Z,19.10
2022-09-11T11:15:01.214Z,19.20
2022-09-11T11:17:47.464Z,19.40
2022-09-11T11:20:45.985Z,19.40
2022-09-11T11:23:53.004Z,19.50
2022-09-11T11:26:46.370Z,19.60
2022-09-11T11:29:42.051Z,19.60
2022-09-11T11:32:39.493Z,19.70
2022-09-11T11:35:23.873Z,19.60
2022-09-11T11:38:08.506Z,20.00
2022-09-11T11:40:53.945Z,20.00
2022-09-11T11:43:34.217Z,20.00
2022-09-11T11:46:16.026Z,20.00
2022-09-11T11:48:57.872Z,19.80
2022-09-11T11:51:49.669Z,19.70
2022-09-11T11:54:34.417Z,20.10
2022-09-11T11:57:24.704Z,20.00
2022-09-11T12:00:12.023Z,20.50
2022-09-11T12:02:53.877Z,20.40
2022-09-11T12:05:32.469Z,20.60
2022-09-11T12:08:16.861Z,20.30
2022-09-11T12:11:01.525Z,20.10
2022-09-11T12:13:44.868Z,19.80
2022-09-11T12:16:32.697Z,19.40
2022-09-11T12:19:15.827Z,19.70
2022-09-11T12:22:35.135Z,19.90
2022-09-11T12:25:54.057Z,20.00
2022-09-11T12:28:41.349Z,20.50
2022-09-11T12:31:20.024Z,20.80
2022-09-11T12:33:57.199Z,21.20
2022-09-11T12:36:51.354Z,21.30
2022-09-11T12:39:36.131Z,21.30
2022-09-11T12:42:58.733Z,21.10
2022-09-11T12:45:37.118Z,20.70
2022-09-11T12:48:34.004Z,20.80
2022-09-11T12:51:25.141Z,20.80
2022-09-11T12:54:15.310Z,20.70
2022-09-11T12:57:01.549Z,21.20
2022-09-11T12:59:40.556Z,21.10
2022-09-11T13:05:27.516Z,20.80
2022-09-11T13:08:08.139Z,20.90
2022-09-11T13:10:45.490Z,21.10
2022-09-11T13:13:57.263Z,20.90
2022-09-11T13:16:45.564Z,21.00
2022-09-11T13:25:20.060Z,20.90
2022-09-11T13:28:08.331Z,20.60
2022-09-11T13:30:55.510Z,20.20
2022-09-11T13:33:45.676Z,20.10
2022-09-11T13:36:26.045Z,19.90
2022-09-11T13:39:06.102Z,20.10
2022-09-11T13:41:48.105Z,20.50
2022-09-11T13:44:40.161Z,20.60
2022-09-11T13:47:21.465Z,20.80
2022-09-11T13:50:00.863Z,20.90
2022-09-11T13:52:37.789Z,21.30
2022-09-11T13:55:27.685Z,21.20
2022-09-11T13:58:25.518Z,21.20
2022-09-11T14:01:12.814Z,21.00
2022-09-11T14:06:48.438Z,21.40
2022-09-11T14:09:30.952Z,21.50
2022-09-11T14:12:15.999Z,21.40
2022-09-11T14:14:56.086Z,21.70
2022-09-11T14:17:45.432Z,21.70
2022-09-11T14:20:23.293Z,21.80
2022-09-11T14:23:03.453Z,21.70
2022-09-11T14:25:40.554Z,21.70
2022-09-11T14:29:02.798Z,21.20
2022-09-11T14:31:58.817Z,20.70
2022-09-11T14:34:36.820Z,21.60
2022-09-11T14:37:13.735Z,21.80
2022-09-11T14:39:55.385Z,22.30
2022-09-11T14:42:36.538Z,22.30
2022-09-11T14:45:33.751Z,22.50
2022-09-11T14:48:14.840Z,22.50
2022-09-11T14:51:03.445Z,22.20
2022-09-11T14:53:37.866Z,22.40
2022-09-11T14:56:12.608Z,22.30
2022-09-11T14:59:09.752Z,21.90
2022-09-11T15:01:48.134Z,21.50
2022-09-11T15:04:25.867Z,21.30
2022-09-11T15:07:06.915Z,21.60
2022-09-11T15:09:42.459Z,21.20
2022-09-11T15:12:21.682Z,21.10
2022-09-11T15:15:19.813Z,21.30
2022-09-11T15:17:59.876Z,21.20
2022-09-11T15:21:02.115Z,21.00
2022-09-11T15:24:07.832Z,20.70
2022-09-11T15:26:42.640Z,20.70
2022-09-11T15:29:18.481Z,20.50
2022-09-11T15:31:54.615Z,20.30
2022-09-11T15:34:33.364Z,20.00
2022-09-11T15:37:09.826Z,20.00
2022-09-11T15:39:49.608Z,20.00
2022-09-11T15:42:39.786Z,19.80
2022-09-11T15:45:17.965Z,19.70
2022-09-11T15:47:55.521Z,19.70
2022-09-11T15:50:39.444Z,19.50
2022-09-11T15:53:17.812Z,19.40
2022-09-11T15:56:04.912Z,19.50
2022-09-11T15:58:58.773Z,19.60
2022-09-11T16:01:39.606Z,19.90
2022-09-11T16:04:20.818Z,19.70
2022-09-11T16:07:01.665Z,19.70
2022-09-11T16:09:36.752Z,19.80
2022-09-11T16:12:12.422Z,19.80
2022-09-11T16:14:48.578Z,20.10
2022-09-11T16:17:27.134Z,20.00
2022-09-11T16:20:01.794Z,20.00
2022-09-11T16:22:40.472Z,19.80
2022-09-11T16:25:19.643Z,19.80
2022-09-11T16:27:58.925Z,19.70
2022-09-11T16:30:44.416Z,19.90
2022-09-11T16:33:23.073Z,19.70
2022-09-11T16:36:03.654Z,19.50
2022-09-11T16:38:42.955Z,19.40
2022-09-11T16:41:20.220Z,19.40
2022-09-11T16:43:55.571Z,19.40
2022-09-11T16:46:31.114Z,19.30
2022-09-11T16:49:06.685Z,19.30
2022-09-11T16:51:42.295Z,19.30
2022-09-11T16:54:19.266Z,19.20
2022-09-11T16:56:54.160Z,19.20
2022-09-11T16:59:29.151Z,19.10
2022-09-11T17:02:03.800Z,19.00
2022-09-11T17:05:12.679Z,18.90
2022-09-11T17:07:48.295Z,18.80
2022-09-11T17:10:24.815Z,18.70
2022-09-11T17:13:00.825Z,18.70
2022-09-11T17:15:36.300Z,18.60
2022-09-11T17:18:10.654Z,18.50
2022-09-11T17:20:45.342Z,18.40
2022-09-11T17:23:20.759Z,18.40
2022-09-11T17:25:57.716Z,18.30
2022-09-11T17:29:09.866Z,18.20
2022-09-11T17:35:01.146Z,17.90
2022-09-11T17:37:36.879Z,17.80
2022-09-11T17:40:14.419Z,17.70
2022-09-11T17:43:07.912Z,17.50
2022-09-11T17:45:43.770Z,17.40
2022-09-11T17:48:38.106Z,17.50
2022-09-11T17:51:22.135Z,17.40
2022-09-11T17:54:06.825Z,17.20
2022-09-11T17:57:02.030Z,17.20
2022-09-11T17:59:53.536Z,17.10
2022-09-11T18:02:45.453Z,17.20
2022-09-11T18:05:24.641Z,17.10
2022-09-11T18:08:02.491Z,17.00
2022-09-11T18:10:50.930Z,17.00
2022-09-11T18:13:25.905Z,16.70
2022-09-11T18:16:12.041Z,16.80
2022-09-11T18:18:56.234Z,16.50
2022-09-11T18:21:32.100Z,16.40
2022-09-11T18:24:22.663Z,16.40
2022-09-11T18:27:00.923Z,16.20
2022-09-11T18:29:39.890Z,16.00
2022-09-11T18:32:24.139Z,15.90
2022-09-11T18:35:00.103Z,15.80
2022-09-11T18:37:34.817Z,15.90
2022-09-11T18:40:10.351Z,15.90
2022-09-11T18:46:13.917Z,15.70
2022-09-11T18:52:07.599Z,15.70
2022-09-11T18:54:49.336Z,15.60
2022-09-11T18:57:25.238Z,15.60
2022-09-11T19:00:07.531Z,15.60
2022-09-11T19:03:06.767Z,15.50
2022-09-11T19:05:50.684Z,15.50
2022-09-11T19:08:41.082Z,15.40
2022-09-11T19:11:19.947Z,15.10
2022-09-11T19:14:08.722Z,15.20
2022-09-11T19:16:49.642Z,15.40
2022-09-11T19:19:32.595Z,15.30
2022-09-11T19:22:12.688Z,15.30
2022-09-11T19:25:00.196Z,15.40
2022-09-11T19:27:37.600Z,15.40
2022-09-11T19:30:43.113Z,15.00
2022-09-11T19:33:31.879Z,15.20
2022-09-11T19:36:27.577Z,15.10
2022-09-11T19:39:21.638Z,14.60
2022-09-11T19:42:19.177Z,14.40
2022-09-11T19:45:06.965Z,14.20
2022-09-11T19:47:56.076Z,14.80
2022-09-11T19:50:49.460Z,14.60
2022-09-11T20:00:06.505Z,14.30
2022-09-11T20:02:52.055Z,14.60
2022-09-11T20:05:48.330Z,14.10
2022-09-11T20:08:25.735Z,14.40
2022-09-11T20:11:08.200Z,14.40
2022-09-11T20:13:44.340Z,14.30
2022-09-11T20:16:25.830Z,14.40
2022-09-11T20:19:06.799Z,14.40
2022-09-11T20:21:43.223Z,13.80
2022-09-11T20:24:18.240Z,14.10
2022-09-11T20:26:56.230Z,14.30
2022-09-11T20:29:40.122Z,14.30
2022-09-11T20:32:17.076Z,14.10
2022-09-11T20:34:55.757Z,13.80
2022-09-11T20:37:30.515Z,14.10
2022-09-11T20:40:08.226Z,13.70
2022-09-11T20:42:45.091Z,13.90
2022-09-11T20:45:24.455Z,14.00
2022-09-11T20:48:02.777Z,14.00
2022-09-11T20:50:38.008Z,13.60
2022-09-11T20:53:14.375Z,13.40
2022-09-11T20:55:50.100Z,13.40
2022-09-11T20:58:27.401Z,13.60
2022-09-11T21:01:03.205Z,13.30
2022-09-11T21:03:38.620Z,13.20
2022-09-11T21:06:14.389Z,13.00
2022-09-11T21:08:57.092Z,13.40
2022-09-11T21:11:37.720Z,13.20
2022-09-11T21:14:19.272Z,12.80
2022-09-11T21:16:55.971Z,12.80
2022-09-11T21:19:37.517Z,12.70
2022-09-11T21:22:12.523Z,12.60
2022-09-11T21:24:47.101Z,12.90
2022-09-11T21:27:23.402Z,13.30
2022-09-11T21:29:59.755Z,13.10
2022-09-11T21:32:36.187Z,13.10
2022-09-11T21:35:11.297Z,12.70
2022-09-11T21:37:47.244Z,12.90
2022-09-11T21:40:22.016Z,12.90
2022-09-11T21:42:57.181Z,12.60
2022-09-11T21:45:33.512Z,12.30
2022-09-11T21:48:09.276Z,12.70
2022-09-11T21:50:48.554Z,12.80
2022-09-11T21:53:23.392Z,12.30
2022-09-11T21:56:00.381Z,12.60
2022-09-11T21:58:35.696Z,12.60
2022-09-11T22:01:18.913Z,12.40
2022-09-11T22:03:54.608Z,12.10
2022-09-11T22:06:30.052Z,11.80
2022-09-11T22:09:07.252Z,11.80
2022-09-11T22:11:45.921Z,12.20
2022-09-11T22:14:22.136Z,12.40
2022-09-11T22:17:02.454Z,12.30
2022-09-11T22:19:37.593Z,12.50
2022-09-11T22:22:12.351Z,12.00
2022-09-11T22:24:51.579Z,12.20
2022-09-11T22:27:38.574Z,11.90
2022-09-11T22:30:15.867Z,11.90
2022-09-11T22:33:10.923Z,12.00
2022-09-11T22:35:49.352Z,11.70
2022-09-11T22:38:24.305Z,11.70
2022-09-11T22:41:13.563Z,11.50
2022-09-11T22:43:51.690Z,11.70
2022-09-11T22:46:45.739Z,11.70
2022-09-11T22:49:26.420Z,11.90
2022-09-11T22:52:02.923Z,11.70
2022-09-11T22:54:48.080Z,11.60
2022-09-11T22:57:22.823Z,11.40
2022-09-11T22:59:57.549Z,11.20
2022-09-11T23:02:31.945Z,11.70
2022-09-11T23:05:27.946Z,12.00
2022-09-11T23:08:02.823Z,12.10
2022-09-11T23:10:48.920Z,12.10
2022-09-11T23:13:24.463Z,12.00
2022-09-11T23:15:59.712Z,12.20
2022-09-11T23:18:34.804Z,12.10
2022-09-11T23:21:16.512Z,11.60
2022-09-11T23:23:56.575Z,11.00
2022-09-11T23:26:32.010Z,11.00
2022-09-11T23:29:06.868Z,10.90
2022-09-11T23:31:42.808Z,10.80
2022-09-11T23:34:19.277Z,10.90
2022-09-11T23:36:56.060Z,11.40
2022-09-11T23:39:37.249Z,11.30
2022-09-11T23:42:13.897Z,11.20
2022-09-11T23:45:08.074Z,11.00
2022-09-11T23:47:45.376Z,11.30
2022-09-11T23:50:24.505Z,11.10
2022-09-11T23:53:01.176Z,11.60
2022-09-11T23:55:41.743Z,11.50
2022-09-11T23:58:17.920Z,11.30
